Stations météo

réclame
Mon MeteoGroup
Humain, Belgique (6472): Température de l'air & dewpoint: 19.02.2018 22:00:00 - 25.02.2018 22:00:00 (CET)Humain, Belgique (6472): Vitesse du vent & gusts: 19.02.2018 22:00:00 - 25.02.2018 22:00:00 (CET)Humain, Belgique (6472): Direction du vent: 19.02.2018 22:00:00 - 25.02.2018 22:00:00 (CET)Humain, Belgique (6472): reduced air pressure: 19.02.2018 22:00:00 - 25.02.2018 22:00:00 (CET)Humain, Belgique (6472): Ensoleillement: 19.02.2018 22:00:00 - 25.02.2018 22:00:00 (CET)Humain, Belgique (6472): Quantités de précipitations: 19.02.2018 22:00:00 - 25.02.2018 22:00:00 (CET)
Date & Time tt [°C] td [°C] ff [km/h] ff [knt] fx [km/h] fx [knt] dd ppp [hPa] sd [min] rr [mm]
25.02.2018 22:00:00 -4,6 -13,6 14 8 - - NNE 1027,2 - -
25.02.2018 21:00:00 -4,2 -13,8 16 9 31 17 NNE 1027,2 0 0,0
25.02.2018 20:00:00 -3,6 -13,6 18 10 33 18 NNE 1027,0 0 0,0
25.02.2018 19:00:00 -3,1 -17,0 11 6 33 18 NE 1027,0 15 0,0
25.02.2018 18:00:00 -1,5 -16,9 20 11 31 17 NNE 1026,3 60 0,0
25.02.2018 17:00:00 -0,1 -17,7 19 10 31 17 NE 1025,9 60 0,0
25.02.2018 16:00:00 0,3 -18,1 22 12 33 18 NE 1026,1 60 0,0
25.02.2018 15:00:00 0,5 -19,0 19 10 32 17 NE 1026,3 60 0,0
25.02.2018 14:00:00 0,1 -18,6 20 11 35 19 NE 1026,6 60 0,0
25.02.2018 13:00:00 -0,7 -18,6 22 12 40 22 NE 1027,1 60 0,0
25.02.2018 12:00:00 -1,2 -18,3 29 15 43 23 ENE 1027,2 60 0,0
25.02.2018 11:00:00 -2,5 -16,2 27 15 49 26 ENE 1027,5 60 0,0
25.02.2018 10:00:00 -4,0 -15,0 29 16 41 22 E 1027,6 60 0,0
25.02.2018 09:00:00 -6,1 -13,9 13 7 26 14 NE 1027,2 60 0,0
25.02.2018 08:00:00 -6,8 -13,7 13 7 25 14 NE 1027,1 9 0,0
25.02.2018 07:00:00 -6,4 -13,5 14 8 37 20 NE 1026,6 0 0,0
25.02.2018 06:00:00 -5,8 -12,7 21 11 39 21 ENE 1025,9 0 0,0
25.02.2018 05:00:00 -5,2 -12,6 25 14 42 23 ENE 1025,6 0 0,0
25.02.2018 04:00:00 -4,8 -12,5 21 11 31 17 NE 1025,3 0 0,0
25.02.2018 03:00:00 -4,3 -12,4 18 10 37 20 ENE 1025,2 0 0,0
25.02.2018 02:00:00 -3,7 -12,2 23 13 39 21 ENE 1025,0 0 0,0
25.02.2018 01:00:00 -3,4 -12,1 22 12 38 20 ENE 1025,1 0 0,0
25.02.2018 00:00:00 -2,9 -11,3 18 10 39 21 NE 1024,7 0 0,0
24.02.2018 23:00:00 -2,6 -10,9 20 11 36 20 ENE 1024,6 0 0,0
24.02.2018 22:00:00 -2,6 -10,9 14 8 46 25 ENE 1024,2 0 0,0
24.02.2018 21:00:00 -1,4 -10,8 24 13 39 21 ENE 1023,6 0 0,0
24.02.2018 20:00:00 -0,3 -8,5 18 10 32 17 NE 1022,9 0 0,0
24.02.2018 19:00:00 0,7 -8,8 22 12 37 20 NE 1022,0 13 0,0
24.02.2018 18:00:00 2,6 -9,6 23 12 44 24 NE 1021,4 60 0,0
24.02.2018 17:00:00 4,1 -10,3 28 15 48 26 ENE 1020,8 60 0,0
24.02.2018 16:00:00 5,3 -10,5 29 16 46 25 ENE 1020,4 60 0,0
24.02.2018 15:00:00 4,9 -11,0 26 14 53 28 E 1020,4 60 0,0
24.02.2018 14:00:00 3,8 -12,5 45 24 64 34 ENE 1020,8 60 0,0
24.02.2018 13:00:00 3,9 -13,5 36 19 67 36 ENE 1020,6 60 0,0
24.02.2018 12:00:00 3,1 -13,9 32 17 72 39 ENE 1020,8 60 0,0
24.02.2018 11:00:00 0,9 -14,8 30 16 49 26 ENE 1021,0 60 0,0
24.02.2018 10:00:00 -1,5 -14,4 27 15 41 22 ENE 1021,1 60 0,0
24.02.2018 09:00:00 -4,5 -11,9 18 10 30 16 NE 1021,4 59 0,0
24.02.2018 08:00:00 -6,4 -11,1 11 6 21 11 NE 1021,4 0 0,0
24.02.2018 07:00:00 -5,7 -10,9 14 8 23 12 NE 1020,9 0 0,0
24.02.2018 06:00:00 -5,1 -10,9 15 8 29 16 NE 1020,3 0 0,0
24.02.2018 05:00:00 -4,4 -11,1 18 10 30 16 NE 1020,1 0 0,0
24.02.2018 04:00:00 -4,0 -11,1 16 9 25 14 NE 1020,0 0 0,0
24.02.2018 03:00:00 -3,8 -11,7 8 4 29 16 NE 1020,2 0 0,0
24.02.2018 02:00:00 -3,1 -11,3 19 10 42 23 ENE 1019,9 0 0,0
24.02.2018 01:00:00 -2,6 -11,8 29 16 44 24 E 1019,5 0 0,0
24.02.2018 00:00:00 -3,0 -11,9 16 9 29 16 ENE 1019,9 0 0,0
23.02.2018 23:00:00 -2,3 -12,4 19 10 26 14 NE 1019,5 0 0,0
23.02.2018 22:00:00 -2,1 -12,2 15 8 23 13 NE 1019,8 0 0,0
23.02.2018 21:00:00 -2,3 -11,5 14 7 22 12 NE 1020,0 0 0,0
23.02.2018 20:00:00 -1,3 -11,6 14 8 27 15 NE 1019,7 0 0,0
23.02.2018 19:00:00 -0,4 -11,6 18 10 32 17 NE 1019,3 10 0,0
23.02.2018 18:00:00 0,6 -11,8 18 10 31 17 NNE 1018,9 60 0,0
23.02.2018 17:00:00 1,9 -11,8 18 10 37 20 NE 1018,5 60 0,0
23.02.2018 16:00:00 2,2 -11,9 21 12 34 18 NE 1018,5 60 0,0
23.02.2018 15:00:00 2,0 -11,5 19 11 34 19 NNE 1018,9 60 0,0
23.02.2018 14:00:00 1,4 -10,8 19 11 31 17 NNE 1019,5 60 0,0
23.02.2018 13:00:00 0,7 -10,8 18 10 34 18 NE 1020,1 60 0,0
23.02.2018 12:00:00 -0,5 -10,6 20 11 31 17 NE 1020,3 60 0,0
23.02.2018 11:00:00 -1,9 -10,7 24 13 36 19 NE 1020,6 60 0,0
23.02.2018 10:00:00 -2,9 -9,9 16 9 30 16 NE 1020,7 60 0,0
23.02.2018 09:00:00 -5,1 -8,7 15 8 23 13 NNE 1021,0 58 0,0
23.02.2018 08:00:00 -6,2 -8,9 15 8 22 12 NNE 1021,5 0 0,0
23.02.2018 07:00:00 -6,0 -9,0 14 8 24 13 NNE 1021,2 0 0,0
23.02.2018 06:00:00 -5,2 -9,0 17 9 27 15 NNE 1021,1 0 0,0
23.02.2018 05:00:00 -4,6 -9,0 18 10 24 13 NNE 1021,0 0 0,0
23.02.2018 04:00:00 -4,9 -9,4 9 5 22 12 NNE 1020,8 0 0,0
23.02.2018 03:00:00 -4,2 -9,3 14 8 26 14 NNE 1021,0 0 0,0
23.02.2018 02:00:00 -3,6 -9,3 13 7 31 17 NE 1021,5 0 0,0
23.02.2018 01:00:00 -2,6 -9,1 22 12 31 17 NE 1021,3 0 0,0
23.02.2018 00:00:00 -2,3 -8,8 19 10 27 15 NE 1021,4 0 0,0
22.02.2018 23:00:00 -2,3 -7,9 16 9 26 14 NE 1021,6 0 0,0
22.02.2018 22:00:00 -2,4 -6,5 13 7 22 12 NNE 1021,8 0 0,0
22.02.2018 21:00:00 -1,7 -6,0 15 8 22 12 NNE 1021,3 0 0,0
22.02.2018 20:00:00 -1,0 -6,1 13 7 23 13 NNE 1021,5 0 0,0
22.02.2018 19:00:00 -0,4 -6,7 14 8 24 13 NE 1021,0 5 0,0
22.02.2018 18:00:00 1,0 -8,6 16 9 41 22 NE 1020,6 60 0,0
22.02.2018 17:00:00 1,9 -8,7 24 13 44 24 NE 1020,3 60 0,0
22.02.2018 16:00:00 2,2 -7,9 27 14 43 23 NE 1020,3 60 0,0
22.02.2018 15:00:00 2,7 -8,4 26 14 43 23 NE 1020,7 60 0,0
22.02.2018 14:00:00 3,0 -9,0 25 14 43 23 NE 1021,2 60 0,0
22.02.2018 13:00:00 2,7 -8,7 29 16 44 24 ENE 1021,7 60 0,0
22.02.2018 12:00:00 2,2 -8,2 25 13 44 24 ENE 1022,1 60 0,0
22.02.2018 11:00:00 0,0 -6,1 16 8 26 14 NE 1022,4 60 0,0
22.02.2018 10:00:00 -2,4 -5,5 14 8 26 14 NNE 1022,9 60 0,0
22.02.2018 09:00:00 -4,5 -6,1 18 10 26 14 NNE 1022,8 49 0,0
22.02.2018 08:00:00 -4,8 -6,4 19 11 27 14 NNE 1022,6 0 0,0
22.02.2018 07:00:00 -4,7 -6,1 18 10 27 15 NNE 1022,3 0 0,0
22.02.2018 06:00:00 -4,6 -5,8 18 10 26 14 NNE 1022,2 0 0,0
22.02.2018 05:00:00 -4,4 -5,4 16 9 25 14 NNE 1022,2 0 0,0
22.02.2018 04:00:00 -4,3 -5,3 16 9 23 13 NNE 1022,4 0 0,0
22.02.2018 03:00:00 -4,0 -5,4 17 9 23 12 NNE 1022,9 0 0,0
22.02.2018 02:00:00 -3,4 -5,2 17 9 24 13 NNE 1023,1 0 0,0
22.02.2018 01:00:00 -3,1 -5,4 18 10 24 13 NNE 1023,4 0 0,0
22.02.2018 00:00:00 -2,3 -5,2 19 10 26 14 NNE 1023,5 0 0,0
21.02.2018 23:00:00 -1,9 -5,3 13 7 24 13 NNE 1023,7 0 0,0
21.02.2018 22:00:00 -1,6 -5,2 14 7 24 13 NNE 1023,8 0 0,0
21.02.2018 21:00:00 -1,2 -5,2 11 6 19 10 NNE 1024,0 0 0,0
21.02.2018 20:00:00 -0,6 -5,3 11 6 25 13 NNE 1023,9 0 0,0
21.02.2018 19:00:00 -0,1 -5,0 14 8 24 13 NNE 1023,8 0 0,0
21.02.2018 18:00:00 1,2 -4,5 16 8 29 16 NNE 1023,5 45 0,0
21.02.2018 17:00:00 2,4 -3,9 15 8 32 18 N 1023,4 60 0,0
21.02.2018 16:00:00 2,8 -3,7 19 10 33 18 N 1023,3 60 0,0
21.02.2018 15:00:00 2,7 -3,3 20 11 30 16 N 1023,8 60 0,0
21.02.2018 14:00:00 - - - - - - - - - -
21.02.2018 13:00:00 1,8 -4,2 18 10 - - NNE 1024,9 - -
21.02.2018 12:00:00 0,9 -3,6 14 8 22 12 NNE 1025,0 - -
21.02.2018 11:00:00 -0,7 -3,8 14 8 22 12 NNE 1025,2 - -
21.02.2018 10:00:00 -1,8 -3,4 17 9 26 14 NE 1025,2 60 0,0
21.02.2018 09:00:00 -4,0 -4,5 14 8 22 12 NNE 1025,4 35 0,0
21.02.2018 08:00:00 -4,4 -4,9 12 7 23 12 N 1024,8 0 0,0
21.02.2018 07:00:00 -4,1 -4,8 14 8 24 13 NNE 1024,4 0 0,0
21.02.2018 06:00:00 -3,5 -4,6 14 8 19 11 NNE 1024,5 0 0,0
21.02.2018 05:00:00 -2,9 -4,1 14 7 20 11 NNE 1023,9 0 0,0
21.02.2018 04:00:00 -2,9 -4,2 13 7 21 11 N 1023,6 0 0,0
21.02.2018 03:00:00 -2,1 -3,8 16 9 23 12 NNE 1023,2 0 0,0
21.02.2018 02:00:00 -2,0 -3,7 14 8 20 11 NNE 1023,4 0 0,0
21.02.2018 01:00:00 -2,3 -4,0 7 4 19 10 N 1023,3 0 0,0
21.02.2018 00:00:00 -1,0 -3,0 13 7 21 11 NNE 1022,2 0 0,0
20.02.2018 23:00:00 -1,1 -3,2 10 5 14 8 NNE 1021,7 0 0,0
20.02.2018 22:00:00 -0,3 -2,8 10 5 18 10 NNE 1021,5 0 0,0
20.02.2018 21:00:00 0,6 -2,4 13 7 19 10 NNE 1021,0 0 0,0
20.02.2018 20:00:00 1,0 -2,0 11 6 16 9 N 1020,4 0 0,0
20.02.2018 19:00:00 1,3 -2,4 11 6 15 8 N 1019,9 0 0,0
20.02.2018 18:00:00 2,1 -2,5 12 6 18 10 - 1019,4 0 0,0
20.02.2018 17:00:00 3,1 -2,8 8 5 16 9 N 1018,8 0 0,0
20.02.2018 16:00:00 3,6 -3,6 10 5 17 9 NNE 1018,3 13 0,0
20.02.2018 15:00:00 4,2 -2,7 9 5 18 10 NNW 1018,5 60 0,0
20.02.2018 14:00:00 3,6 -2,0 9 5 16 8 NW 1019,0 31 0,0
20.02.2018 13:00:00 2,5 -2,4 4 2 7 4 SE 1018,9 27 0,0
20.02.2018 12:00:00 2,0 -1,5 4 2 9 5 SSW 1019,7 52 0,0
20.02.2018 11:00:00 1,0 -1,4 4 2 7 4 SE 1019,4 51 0,0
20.02.2018 10:00:00 -0,9 -1,8 4 2 7 4 N 1019,4 3 0,0
20.02.2018 09:00:00 -1,3 -2,5 6 3 9 5 NNE 1018,9 2 0,0
20.02.2018 08:00:00 -0,8 -2,5 6 3 14 8 ENE 1018,6 0 0,0
20.02.2018 07:00:00 -1,2 -2,3 7 4 8 5 ENE 1018,6 0 0,0
20.02.2018 06:00:00 -0,9 -1,8 8 5 9 5 ENE 1018,7 0 0,0
20.02.2018 05:00:00 -1,5 -2,5 5 3 11 6 NNE 1018,8 0 0,0
20.02.2018 04:00:00 -1,6 -3,1 6 3 8 4 NNE 1018,7 0 0,0
20.02.2018 03:00:00 -0,6 -2,2 0 0 3 2 N 1018,2 0 0,0
20.02.2018 02:00:00 -0,5 -2,2 4 2 6 4 E 1018,3 0 0,0
20.02.2018 01:00:00 -0,3 -2,1 7 4 9 5 E 1018,5 0 0,0
20.02.2018 00:00:00 0,0 -2,2 4 2 7 4 S 1018,6 0 0,0
19.02.2018 23:00:00 0,2 -2,0 4 2 8 4 S 1018,4 0 0,0
19.02.2018 22:00:00 0,2 -2,0 4 2 9 5 S 1018,8 0 0,0

tt = Température de l'air
td = dewpoint
ff = Vitesse du vent
fx = gusts
dd = Direction du vent
ppp = reduced air pressure
sd = Ensoleillement
rr = Quantités de précipitations

stations d'obs. à proximité